Time;durP1;ratioP1;P1;durP2;ratioP2;P2;SDS_P1;SDS_P2;PMS_P1;PMS_P2;Temp;Humidity;BMP_temperature;BMP_pressure;BME280_temperature;BME280_humidity;BME280_pressure;Samples;Min_cycle;Max_cycle;Signal;HPM_P1;HPM_P2
2022/03/17 03:04:47;;;;;;;2.73;1.03;;;;;;;;;;5013854;28;20219;-70
2022/03/17 03:07:15;;;;;;;3.43;2.73;;;;;;;;;;5032102;28;20193;-71
2022/03/17 03:09:42;;;;;;;1.90;1.17;;;;;;;;;;5031874;28;20208;-70
2022/03/17 03:12:10;;;;;;;3.03;2.13;;;;;;;;;;5023240;28;20205;-71
2022/03/17 03:14:38;;;;;;;3.90;1.57;;;;;;;;;;4991027;28;20201;-71
2022/03/17 03:17:06;;;;;;;0.30;0.30;;;;;;;;;;4990388;28;20248;-70
2022/03/17 03:19:34;;;;;;;1.57;1.47;;;;;;;;;;4996763;28;20202;-71
2022/03/17 03:22:03;;;;;;;1.27;1.23;;;;;;;;;;4992505;28;20209;-71
2022/03/17 03:24:30;;;;;;;1.70;1.33;;;;;;;;;;4993005;28;20197;-70
2022/03/17 03:26:58;;;;;;;2.07;1.87;;;;;;;;;;4994595;28;20283;-71
2022/03/17 03:29:26;;;;;;;0.83;0.77;;;;;;;;;;4994442;28;20256;-71
2022/03/17 03:31:54;;;;;;;0.63;0.30;;;;;;;;;;4991548;28;20209;-71
2022/03/17 03:34:22;;;;;;;0.97;0.80;;;;;;;;;;4994736;28;20660;-71
2022/03/17 03:39:38;;;;;;;0.77;0.77;;;;;;;;;;4996143;28;20245;-71
2022/03/17 03:42:07;;;;;;;2.13;1.47;;;;;;;;;;4994455;28;20208;-71
2022/03/17 03:44:34;;;;;;;4.90;4.13;;;;;;;;;;4995274;28;20203;-71
2022/03/17 03:47:02;;;;;;;3.20;1.50;;;;;;;;;;4996219;28;20201;-70
2022/03/17 03:49:29;;;;;;;2.57;1.63;;;;;;;;;;4996777;28;20201;-70
2022/03/17 03:51:56;;;;;;;1.10;1.00;;;;;;;;;;4994173;28;20193;-69
2022/03/17 03:54:24;;;;;;;2.43;2.23;;;;;;;;;;4994575;28;20198;-71
2022/03/17 03:56:54;;;;;;;2.63;1.27;;;;;;;;;;4994733;28;20233;-71
2022/03/17 03:59:22;;;;;;;6.93;2.63;;;;;;;;;;4999994;28;20201;-71
2022/03/17 04:01:50;;;;;;;0.70;0.70;;;;;;;;;;4997676;28;20686;-71
2022/03/17 04:04:18;;;;;;;1.67;1.53;;;;;;;;;;4999630;28;20239;-71
2022/03/17 04:06:46;;;;;;;3.00;1.60;;;;;;;;;;4998602;28;20205;-71
2022/03/17 04:09:14;;;;;;;1.83;1.50;;;;;;;;;;4998777;28;20216;-71
2022/03/17 04:11:41;;;;;;;2.67;1.73;;;;;;;;;;5000956;28;20205;-71
2022/03/17 04:14:10;;;;;;;1.80;0.63;;;;;;;;;;4995076;28;20193;-72
2022/03/17 04:16:38;;;;;;;0.20;0.20;;;;;;;;;;4999160;28;20232;-70
2022/03/17 04:19:06;;;;;;;0.50;0.50;;;;;;;;;;4999595;28;20200;-71
2022/03/17 04:21:34;;;;;;;0.53;0.53;;;;;;;;;;4998898;28;20254;-71
2022/03/17 04:24:01;;;;;;;0.33;0.33;;;;;;;;;;4998266;28;20198;-71
2022/03/17 04:26:29;;;;;;;0.77;0.63;;;;;;;;;;4999536;28;20217;-71
2022/03/17 04:28:56;;;;;;;0.50;0.50;;;;;;;;;;5001498;28;20205;-71
2022/03/17 04:31:25;;;;;;;1.30;1.20;;;;;;;;;;4998510;28;20201;-71
2022/03/17 04:33:53;;;;;;;2.13;1.00;;;;;;;;;;4996826;28;20292;-71
2022/03/17 04:36:21;;;;;;;0.23;0.23;;;;;;;;;;4996851;28;20256;-71
2022/03/17 04:38:49;;;;;;;1.47;1.37;;;;;;;;;;4997122;28;20205;-71
2022/03/17 04:41:17;;;;;;;1.43;1.30;;;;;;;;;;4998947;28;20674;-71
2022/03/17 04:43:44;;;;;;;4.63;2.57;;;;;;;;;;4997947;28;20193;-70
2022/03/17 04:46:12;;;;;;;1.50;0.80;;;;;;;;;;4996316;28;20609;-72
2022/03/17 04:48:41;;;;;;;1.57;1.40;;;;;;;;;;4997435;28;20290;-71
2022/03/17 04:51:08;;;;;;;1.33;0.90;;;;;;;;;;5000682;28;20559;-71
2022/03/17 04:53:36;;;;;;;0.37;0.37;;;;;;;;;;4999254;28;20670;-71
2022/03/17 04:56:04;;;;;;;0.67;0.67;;;;;;;;;;4999282;28;20328;-71
2022/03/17 04:58:33;;;;;;;2.73;1.40;;;;;;;;;;4994645;28;20406;-71
2022/03/17 05:01:01;;;;;;;1.60;1.50;;;;;;;;;;4996444;28;20296;-71
2022/03/17 05:03:29;;;;;;;0.50;0.50;;;;;;;;;;4998859;28;20241;-71
2022/03/17 05:05:58;;;;;;;0.33;0.33;;;;;;;;;;4998238;28;20223;-71
2022/03/17 05:08:25;;;;;;;1.07;0.43;;;;;;;;;;4995675;28;20252;-71
2022/03/17 05:10:53;;;;;;;0.83;0.60;;;;;;;;;;4998895;28;20543;-71
2022/03/17 05:13:22;;;;;;;2.23;1.53;;;;;;;;;;4996905;28;20201;-71
2022/03/17 05:15:51;;;;;;;0.47;0.30;;;;;;;;;;5002651;28;20257;-71
2022/03/17 05:18:19;;;;;;;0.00;0.00;;;;;;;;;;4996113;28;20197;-71
2022/03/17 05:20:47;;;;;;;2.97;1.57;;;;;;;;;;4998821;28;20480;-73
2022/03/17 05:23:17;;;;;;;0.93;0.73;;;;;;;;;;4994504;28;20252;-71
2022/03/17 05:25:45;;;;;;;3.50;1.50;;;;;;;;;;4993493;28;20213;-71
2022/03/17 05:28:13;;;;;;;0.47;0.47;;;;;;;;;;4998801;28;20197;-71
2022/03/17 05:30:41;;;;;;;0.20;0.20;;;;;;;;;;4996156;28;20215;-71
2022/03/17 05:33:11;;;;;;;0.50;0.20;;;;;;;;;;4998629;28;20261;-71
2022/03/17 05:35:39;;;;;;;0.40;0.40;;;;;;;;;;4993410;28;20260;-71
2022/03/17 05:38:07;;;;;;;0.40;0.40;;;;;;;;;;4998836;28;20205;-71
2022/03/17 05:40:36;;;;;;;0.53;0.53;;;;;;;;;;4993632;28;20216;-70
2022/03/17 05:43:06;;;;;;;0.37;0.37;;;;;;;;;;4996942;28;20197;-71
2022/03/17 05:45:34;;;;;;;0.60;0.60;;;;;;;;;;4997320;28;20213;-71
2022/03/17 05:48:02;;;;;;;0.30;0.30;;;;;;;;;;4997194;28;20197;-71
2022/03/17 05:50:31;;;;;;;0.23;0.10;;;;;;;;;;4998889;28;20244;-71
2022/03/17 05:52:58;;;;;;;0.60;0.50;;;;;;;;;;4993144;28;20205;-71
2022/03/17 05:55:26;;;;;;;0.20;0.10;;;;;;;;;;4997482;28;20205;-71
2022/03/17 05:57:56;;;;;;;0.77;0.77;;;;;;;;;;4999350;28;20251;-71
2022/03/17 06:00:25;;;;;;;0.00;0.00;;;;;;;;;;4998120;28;20219;-71
2022/03/17 06:02:52;;;;;;;0.13;0.13;;;;;;;;;;4998166;28;20288;-71
2022/03/17 06:05:20;;;;;;;0.10;0.10;;;;;;;;;;4998682;28;20241;-72
2022/03/17 06:07:48;;;;;;;0.00;0.00;;;;;;;;;;4998263;28;20546;-71
2022/03/17 06:10:16;;;;;;;0.60;0.60;;;;;;;;;;4998324;28;20694;-71
2022/03/17 06:12:44;;;;;;;0.20;0.20;;;;;;;;;;4992247;28;20625;-71
2022/03/17 06:15:14;;;;;;;0.00;0.00;;;;;;;;;;4996137;28;20228;-70
2022/03/17 06:17:41;;;;;;;0.43;0.30;;;;;;;;;;4996803;28;20256;-70
2022/03/17 06:20:11;;;;;;;0.00;0.00;;;;;;;;;;4995259;28;20229;-72
2022/03/17 06:22:42;;;;;;;0.60;0.30;;;;;;;;;;4998006;28;20209;-71
2022/03/17 06:25:10;;;;;;;0.87;0.87;;;;;;;;;;4994816;28;20589;-71
2022/03/17 06:27:37;;;;;;;0.00;0.00;;;;;;;;;;4997258;28;20213;-71
2022/03/17 06:30:06;;;;;;;0.00;0.00;;;;;;;;;;4997294;28;20721;-71
2022/03/17 06:32:35;;;;;;;8.93;0.97;;;;;;;;;;4996212;28;20208;-71
2022/03/17 06:35:02;;;;;;;0.13;0.13;;;;;;;;;;4992764;28;20219;-71
2022/03/17 06:37:30;;;;;;;0.97;0.97;;;;;;;;;;4997225;28;20233;-71
2022/03/17 06:39:57;;;;;;;0.00;0.00;;;;;;;;;;4998104;28;20224;-71
2022/03/17 06:42:25;;;;;;;2.43;0.27;;;;;;;;;;4995950;28;20228;-71
2022/03/17 06:44:52;;;;;;;0.00;0.00;;;;;;;;;;4998227;28;20201;-71
2022/03/17 06:47:19;;;;;;;0.00;0.00;;;;;;;;;;4993688;28;20208;-70
2022/03/17 06:49:48;;;;;;;0.27;0.10;;;;;;;;;;4995518;28;20697;-72
2022/03/17 06:52:16;;;;;;;0.07;0.07;;;;;;;;;;4998855;28;20202;-72
2022/03/17 06:54:43;;;;;;;0.13;0.13;;;;;;;;;;4998184;28;20209;-72
2022/03/17 06:57:11;;;;;;;0.00;0.00;;;;;;;;;;4994426;28;20234;-71
2022/03/17 06:59:38;;;;;;;0.20;0.20;;;;;;;;;;4993420;28;20201;-71
2022/03/17 07:02:05;;;;;;;0.70;0.63;;;;;;;;;;4997710;28;20200;-71
2022/03/17 07:04:33;;;;;;;0.43;0.37;;;;;;;;;;4995854;28;20237;-71
2022/03/17 07:07:01;;;;;;;0.30;0.30;;;;;;;;;;4997456;28;20275;-71
2022/03/17 07:09:29;;;;;;;0.20;0.20;;;;;;;;;;4994448;28;20591;-70
2022/03/17 07:11:56;;;;;;;0.20;0.20;;;;;;;;;;4994362;28;20218;-71
2022/03/17 07:14:23;;;;;;;0.00;0.00;;;;;;;;;;4996536;28;20579;-72
2022/03/17 07:16:51;;;;;;;0.00;0.00;;;;;;;;;;4999018;28;20229;-72
2022/03/17 07:19:18;;;;;;;0.00;0.00;;;;;;;;;;4996886;28;20655;-71
2022/03/17 07:21:46;;;;;;;0.00;0.00;;;;;;;;;;5004711;28;20204;-71
2022/03/17 07:24:15;;;;;;;0.00;0.00;;;;;;;;;;5008983;28;20204;-75
2022/03/17 07:26:43;;;;;;;0.00;0.00;;;;;;;;;;5011187;28;20236;-71
2022/03/17 07:29:10;;;;;;;0.00;0.00;;;;;;;;;;4999389;28;20619;-71
2022/03/17 07:31:37;;;;;;;0.10;0.10;;;;;;;;;;4991909;28;20587;-72
2022/03/17 07:34:05;;;;;;;0.50;0.30;;;;;;;;;;4992226;28;20233;-70
2022/03/17 07:36:32;;;;;;;18.37;15.93;;;;;;;;;;5009581;28;20312;-71
2022/03/17 07:39:01;;;;;;;0.00;0.00;;;;;;;;;;5031495;28;20207;-71
2022/03/17 07:41:30;;;;;;;0.00;0.00;;;;;;;;;;5031226;28;20258;-70
2022/03/17 07:43:57;;;;;;;0.07;0.07;;;;;;;;;;5030811;28;20204;-69
2022/03/17 07:46:26;;;;;;;0.10;0.10;;;;;;;;;;5016224;28;20197;-70
2022/03/17 07:48:54;;;;;;;0.00;0.00;;;;;;;;;;5009390;28;20205;-70
2022/03/17 07:51:22;;;;;;;0.13;0.10;;;;;;;;;;4991806;28;20754;-69
2022/03/17 07:53:49;;;;;;;0.00;0.00;;;;;;;;;;4991916;28;20566;-70
2022/03/17 07:56:19;;;;;;;2.10;1.40;;;;;;;;;;5002999;28;20550;-72
2022/03/17 07:58:48;;;;;;;0.00;0.00;;;;;;;;;;5009715;28;20215;-71
2022/03/17 08:01:16;;;;;;;1.70;1.07;;;;;;;;;;5014200;28;20213;-72
2022/03/17 08:03:44;;;;;;;0.00;0.00;;;;;;;;;;5017503;28;20331;-71
2022/03/17 08:06:12;;;;;;;0.00;0.00;;;;;;;;;;5017809;28;20255;-72
2022/03/17 08:08:41;;;;;;;0.00;0.00;;;;;;;;;;5015804;28;20627;-72
2022/03/17 08:11:09;;;;;;;0.00;0.00;;;;;;;;;;5011346;28;20213;-72
2022/03/17 08:13:36;;;;;;;0.20;0.20;;;;;;;;;;5015639;28;20203;-72
2022/03/17 08:16:06;;;;;;;0.00;0.00;;;;;;;;;;5016443;28;20576;-72
2022/03/17 08:18:34;;;;;;;0.27;0.10;;;;;;;;;;5016561;28;20232;-72
2022/03/17 08:21:01;;;;;;;0.00;0.00;;;;;;;;;;5018735;28;20197;-73
2022/03/17 08:23:29;;;;;;;0.07;0.07;;;;;;;;;;5017454;28;20201;-72
2022/03/17 08:25:56;;;;;;;0.00;0.00;;;;;;;;;;5015235;28;20587;-71
2022/03/17 08:28:24;;;;;;;0.00;0.00;;;;;;;;;;5016037;28;20200;-71
2022/03/17 08:30:52;;;;;;;0.20;0.20;;;;;;;;;;5017867;28;20208;-72
2022/03/17 08:33:21;;;;;;;0.03;0.03;;;;;;;;;;5017120;28;20296;-71
2022/03/17 08:35:48;;;;;;;0.00;0.00;;;;;;;;;;5017636;28;20558;-72
2022/03/17 08:38:16;;;;;;;0.00;0.00;;;;;;;;;;5016542;28;20231;-73
2022/03/17 08:40:43;;;;;;;0.10;0.10;;;;;;;;;;5017825;28;20224;-72
2022/03/17 08:43:11;;;;;;;0.30;0.30;;;;;;;;;;5018734;28;20558;-71
2022/03/17 08:51:11;;;;;;;0.17;0.17;;;;;;;;;;5017540;28;20293;-71
2022/03/17 08:53:39;;;;;;;0.10;0.10;;;;;;;;;;5009680;28;20283;-71
2022/03/17 08:56:06;;;;;;;0.00;0.00;;;;;;;;;;5012282;28;20205;-71
2022/03/17 08:58:37;;;;;;;0.00;0.00;;;;;;;;;;5010613;28;20228;-72
2022/03/17 09:01:05;;;;;;;0.00;0.00;;;;;;;;;;5014605;28;20197;-72
2022/03/17 09:03:33;;;;;;;0.10;0.00;;;;;;;;;;5010025;28;20229;-72
2022/03/17 09:06:01;;;;;;;1.17;0.68;;;;;;;;;;5012157;28;20582;-73
2022/03/17 09:08:29;;;;;;;0.00;0.00;;;;;;;;;;5031518;28;20209;-72
2022/03/17 09:10:57;;;;;;;0.10;0.10;;;;;;;;;;5016691;28;20259;-71
2022/03/17 09:13:25;;;;;;;0.00;0.00;;;;;;;;;;5014281;28;20197;-72
2022/03/17 09:15:54;;;;;;;0.00;0.00;;;;;;;;;;5014435;28;20200;-72
2022/03/17 09:18:21;;;;;;;0.00;0.00;;;;;;;;;;5018767;28;20331;-69
2022/03/17 09:20:51;;;;;;;0.20;0.10;;;;;;;;;;5033874;28;20200;-72
2022/03/17 09:23:19;;;;;;;0.08;0.08;;;;;;;;;;5011277;28;20200;-72
2022/03/17 09:25:46;;;;;;;0.00;0.00;;;;;;;;;;4997032;28;20239;-72
2022/03/17 09:28:14;;;;;;;0.65;0.20;;;;;;;;;;5004671;28;20206;-71
2022/03/17 09:30:42;;;;;;;0.00;0.00;;;;;;;;;;5001580;28;20664;-71
2022/03/17 09:33:09;;;;;;;0.57;0.57;;;;;;;;;;5006010;28;20221;-72
2022/03/17 09:35:37;;;;;;;0.00;0.00;;;;;;;;;;5003310;28;20288;-72
2022/03/17 09:38:06;;;;;;;0.08;0.08;;;;;;;;;;5000319;28;20220;-71
2022/03/17 09:40:34;;;;;;;0.55;0.40;;;;;;;;;;5006224;28;20197;-72
2022/03/17 09:43:21;;;;;;;0.05;0.00;;;;;;;;;;4997782;28;20205;-71
2022/03/17 09:45:50;;;;;;;0.10;0.10;;;;;;;;;;5002458;28;20193;-71
2022/03/17 09:48:18;;;;;;;0.20;0.20;;;;;;;;;;5001029;28;20681;-71
2022/03/17 09:50:47;;;;;;;0.00;0.00;;;;;;;;;;5005698;28;20212;-72
2022/03/17 09:53:16;;;;;;;0.10;0.00;;;;;;;;;;5016865;28;20584;-72
2022/03/17 09:55:44;;;;;;;0.20;0.20;;;;;;;;;;5033243;28;20200;-73
2022/03/17 09:58:11;;;;;;;0.38;0.20;;;;;;;;;;5033216;28;20232;-72
2022/03/17 10:00:53;;;;;;;0.23;0.13;;;;;;;;;;5032833;28;20291;-69
2022/03/17 10:03:21;;;;;;;0.00;0.00;;;;;;;;;;5031129;28;20255;-70
2022/03/17 10:05:49;;;;;;;0.03;0.03;;;;;;;;;;5001406;28;20209;-71
2022/03/17 10:08:20;;;;;;;0.60;0.50;;;;;;;;;;5001578;28;20203;-71
2022/03/17 10:10:48;;;;;;;0.20;0.17;;;;;;;;;;5018695;28;20212;-74
2022/03/17 10:13:17;;;;;;;0.90;0.70;;;;;;;;;;5016714;28;20657;-69
2022/03/17 10:15:46;;;;;;;0.15;0.00;;;;;;;;;;5032741;28;20699;-69
2022/03/17 10:18:20;;;;;;;0.27;0.10;;;;;;;;;;5032833;28;20735;-71
2022/03/17 10:20:48;;;;;;;0.10;0.10;;;;;;;;;;5010970;28;20220;-70
2022/03/17 10:23:25;;;;;;;0.10;0.10;;;;;;;;;;5010708;28;20236;-70
2022/03/17 10:25:57;;;;;;;0.90;0.35;;;;;;;;;;5008893;28;20200;-73
2022/03/17 10:28:26;;;;;;;0.00;0.00;;;;;;;;;;4997245;28;20288;-76
2022/03/17 10:31:03;;;;;;;0.00;0.00;;;;;;;;;;5014094;28;20679;-69
2022/03/17 10:33:31;;;;;;;1.17;0.55;;;;;;;;;;5012863;28;20205;-69
2022/03/17 10:36:13;;;;;;;0.00;0.00;;;;;;;;;;5012739;28;20247;-70
2022/03/17 10:38:42;;;;;;;1.20;0.32;;;;;;;;;;5012556;28;20717;-71
2022/03/17 10:41:12;;;;;;;0.40;0.40;;;;;;;;;;5007257;28;20211;-69
2022/03/17 10:43:41;;;;;;;0.20;0.20;;;;;;;;;;4993085;28;20642;-71
2022/03/17 10:46:11;;;;;;;0.00;0.00;;;;;;;;;;4992924;28;20197;-68
2022/03/17 10:48:54;;;;;;;0.40;0.40;;;;;;;;;;4997855;28;20207;-70
2022/03/17 10:51:38;;;;;;;4.80;1.23;;;;;;;;;;5025240;28;20200;-69
2022/03/17 10:54:07;;;;;;;2.57;0.70;;;;;;;;;;5029926;28;20721;-69
2022/03/17 10:56:37;;;;;;;2.83;0.50;;;;;;;;;;5032063;28;20266;-70
2022/03/17 10:59:07;;;;;;;0.67;0.67;;;;;;;;;;5031928;28;20228;-71
2022/03/17 11:01:38;;;;;;;0.10;0.10;;;;;;;;;;5009964;28;20197;-70
2022/03/17 11:04:06;;;;;;;0.97;0.93;;;;;;;;;;4994259;28;20689;-69
2022/03/17 11:06:38;;;;;;;1.13;0.90;;;;;;;;;;5011395;28;20208;-71
2022/03/17 11:09:08;;;;;;;0.20;0.20;;;;;;;;;;5017290;28;20249;-70
2022/03/17 11:11:37;;;;;;;0.53;0.30;;;;;;;;;;5014174;28;20630;-70
2022/03/17 11:14:06;;;;;;;0.00;0.00;;;;;;;;;;4995711;28;20205;-71
2022/03/17 11:16:35;;;;;;;0.00;0.00;;;;;;;;;;4992349;28;20194;-73
2022/03/17 11:19:03;;;;;;;0.67;0.53;;;;;;;;;;5007411;28;20232;-70
2022/03/17 11:21:32;;;;;;;0.67;0.10;;;;;;;;;;5026808;28;20287;-71
2022/03/17 11:24:04;;;;;;;0.30;0.30;;;;;;;;;;5010240;28;20224;-71
2022/03/17 11:26:35;;;;;;;0.00;0.00;;;;;;;;;;5026676;28;20258;-72
2022/03/17 11:29:05;;;;;;;0.00;0.00;;;;;;;;;;5029888;28;20205;-71
2022/03/17 11:31:47;;;;;;;0.10;0.10;;;;;;;;;;5031502;28;20201;-72
2022/03/17 11:34:15;;;;;;;0.47;0.47;;;;;;;;;;5031396;28;20202;-71
2022/03/17 11:37:05;;;;;;;0.37;0.20;;;;;;;;;;5017159;28;20256;-72
2022/03/17 11:39:48;;;;;;;0.10;0.10;;;;;;;;;;4992077;28;20230;-72
2022/03/17 11:42:49;;;;;;;2.07;0.67;;;;;;;;;;4992324;28;20193;-72
2022/03/17 11:45:42;;;;;;;0.00;0.00;;;;;;;;;;4989571;28;20201;-72
2022/03/17 11:48:12;;;;;;;0.00;0.00;;;;;;;;;;4992075;28;20651;-73
2022/03/17 11:50:41;;;;;;;0.10;0.00;;;;;;;;;;5003070;28;20204;-73
2022/03/17 11:53:09;;;;;;;0.00;0.00;;;;;;;;;;4992107;28;20208;-74
2022/03/17 11:55:38;;;;;;;0.83;0.83;;;;;;;;;;4991596;28;20289;-72
2022/03/17 11:58:24;;;;;;;0.15;0.15;;;;;;;;;;5030031;28;20242;-74
2022/03/17 12:00:53;;;;;;;0.10;0.00;;;;;;;;;;5014044;28;20242;-70
2022/03/17 12:03:31;;;;;;;0.15;0.15;;;;;;;;;;5002992;28;20201;-71
2022/03/17 12:06:05;;;;;;;0.00;0.00;;;;;;;;;;5004768;28;20202;-69
2022/03/17 12:08:36;;;;;;;0.00;0.00;;;;;;;;;;5006370;28;20197;-69
2022/03/17 12:11:05;;;;;;;0.00;0.00;;;;;;;;;;5003769;28;20296;-68
2022/03/17 12:13:34;;;;;;;0.00;0.00;;;;;;;;;;4999688;28;20220;-70
2022/03/17 12:16:02;;;;;;;1.02;0.52;;;;;;;;;;4998800;28;20294;-71
2022/03/17 12:18:31;;;;;;;0.00;0.00;;;;;;;;;;5006791;28;20217;-72
2022/03/17 12:20:59;;;;;;;0.20;0.20;;;;;;;;;;5005408;28;20224;-72
2022/03/17 12:23:53;;;;;;;0.10;0.10;;;;;;;;;;5011454;28;20205;-76
2022/03/17 12:26:21;;;;;;;0.00;0.00;;;;;;;;;;4979087;28;20200;-69
2022/03/17 12:28:49;;;;;;;0.00;0.00;;;;;;;;;;5001782;28;20210;-69
2022/03/17 12:31:16;;;;;;;1.05;0.43;;;;;;;;;;5011402;28;20209;-69
2022/03/17 12:33:46;;;;;;;0.10;0.05;;;;;;;;;;5005453;28;20241;-70
2022/03/17 12:36:15;;;;;;;0.00;0.00;;;;;;;;;;5007273;28;20229;-69
2022/03/17 12:38:43;;;;;;;0.10;0.10;;;;;;;;;;5015901;28;20256;-73
2022/03/17 12:41:14;;;;;;;0.00;0.00;;;;;;;;;;5008118;28;20583;-70
2022/03/17 12:43:41;;;;;;;0.00;0.00;;;;;;;;;;5008987;28;20201;-71
2022/03/17 12:46:09;;;;;;;1.77;0.10;;;;;;;;;;5013570;28;20295;-70
2022/03/17 12:48:37;;;;;;;0.00;0.00;;;;;;;;;;5014308;28;20209;-69
2022/03/17 12:51:08;;;;;;;0.00;0.00;;;;;;;;;;5011509;28;20211;-70
2022/03/17 12:53:36;;;;;;;0.00;0.00;;;;;;;;;;5000688;28;20233;-70
2022/03/17 12:56:04;;;;;;;0.00;0.00;;;;;;;;;;5012700;28;20197;-69
2022/03/17 12:58:41;;;;;;;0.00;0.00;;;;;;;;;;5003250;28;20248;-70
2022/03/17 13:01:08;;;;;;;0.00;0.00;;;;;;;;;;5009604;28;20197;-70
2022/03/17 13:03:35;;;;;;;0.00;0.00;;;;;;;;;;5014155;28;20236;-70
2022/03/17 13:08:49;;;;;;;0.00;0.00;;;;;;;;;;5012237;28;20704;-70
2022/03/17 13:16:47;;;;;;;0.60;0.10;;;;;;;;;;5006167;28;20566;-70
2022/03/17 13:19:14;;;;;;;0.00;0.00;;;;;;;;;;5011821;28;20251;-72
2022/03/17 13:21:44;;;;;;;0.00;0.00;;;;;;;;;;5011604;28;20248;-72
2022/03/17 13:24:17;;;;;;;0.00;0.00;;;;;;;;;;5014744;28;20197;-71
2022/03/17 13:26:45;;;;;;;1.17;0.80;;;;;;;;;;5015448;28;20219;-71
2022/03/17 13:29:15;;;;;;;0.00;0.00;;;;;;;;;;5012356;28;20211;-71
2022/03/17 13:31:43;;;;;;;0.80;0.22;;;;;;;;;;5013592;28;20205;-71
2022/03/17 13:34:27;;;;;;;0.00;0.00;;;;;;;;;;5013421;28;20201;-72
2022/03/17 13:36:55;;;;;;;0.00;0.00;;;;;;;;;;5015062;28;20205;-72
2022/03/17 13:39:31;;;;;;;0.00;0.00;;;;;;;;;;5013148;28;20324;-71
2022/03/17 13:42:02;;;;;;;0.00;0.00;;;;;;;;;;5006303;28;20197;-71
2022/03/17 13:44:45;;;;;;;0.30;0.30;;;;;;;;;;5012982;28;20209;-71
2022/03/17 13:47:14;;;;;;;0.00;0.00;;;;;;;;;;5013711;28;20285;-71
2022/03/17 13:49:41;;;;;;;0.10;0.10;;;;;;;;;;5013204;28;20228;-72
2022/03/17 13:52:12;;;;;;;0.00;0.00;;;;;;;;;;5012952;28;20236;-70
2022/03/17 13:54:43;;;;;;;0.00;0.00;;;;;;;;;;5011256;28;20618;-70
2022/03/17 13:57:11;;;;;;;0.20;0.20;;;;;;;;;;5016124;28;20201;-71
2022/03/17 13:59:42;;;;;;;0.00;0.00;;;;;;;;;;5015424;28;20239;-71
2022/03/17 14:02:14;;;;;;;0.00;0.00;;;;;;;;;;5011079;28;20275;-70
2022/03/17 14:04:54;;;;;;;0.00;0.00;;;;;;;;;;5012335;28;20329;-71
2022/03/17 14:07:22;;;;;;;0.00;0.00;;;;;;;;;;5012884;28;20214;-71
2022/03/17 14:09:51;;;;;;;0.00;0.00;;;;;;;;;;5018794;28;20212;-71
2022/03/17 14:12:20;;;;;;;0.00;0.00;;;;;;;;;;5009018;28;20201;-70
2022/03/17 14:14:47;;;;;;;0.00;0.00;;;;;;;;;;5010630;28;20212;-71
2022/03/17 14:17:14;;;;;;;0.00;0.00;;;;;;;;;;5010668;28;20219;-70
2022/03/17 14:19:42;;;;;;;6.22;1.27;;;;;;;;;;5009214;28;20571;-71
2022/03/17 14:24:55;;;;;;;1.50;1.45;;;;;;;;;;5003871;28;20340;-71
2022/03/17 14:27:24;;;;;;;0.00;0.00;;;;;;;;;;5009789;28;20197;-71
2022/03/17 14:29:52;;;;;;;0.35;0.22;;;;;;;;;;5001217;28;20677;-71
2022/03/17 14:32:19;;;;;;;0.43;0.43;;;;;;;;;;5005771;28;20201;-71
2022/03/17 14:34:47;;;;;;;0.00;0.00;;;;;;;;;;5012570;28;20271;-72
2022/03/17 14:37:14;;;;;;;0.00;0.00;;;;;;;;;;5012388;28;20209;-74
2022/03/17 14:39:44;;;;;;;0.30;0.05;;;;;;;;;;5004277;28;20672;-74
2022/03/17 14:42:14;;;;;;;0.00;0.00;;;;;;;;;;5001933;28;20264;-69
2022/03/17 14:44:41;;;;;;;0.00;0.00;;;;;;;;;;5007969;28;20673;-69
2022/03/17 14:47:08;;;;;;;6.35;0.70;;;;;;;;;;5011993;28;20675;-69
2022/03/17 14:49:36;;;;;;;0.20;0.17;;;;;;;;;;5012361;28;20543;-69
2022/03/17 14:52:03;;;;;;;0.00;0.00;;;;;;;;;;5012278;28;20236;-69
2022/03/17 14:54:31;;;;;;;0.00;0.00;;;;;;;;;;5011453;28;20207;-69
2022/03/17 14:56:59;;;;;;;0.00;0.00;;;;;;;;;;5009197;28;20208;-69
2022/03/17 14:59:29;;;;;;;0.00;0.00;;;;;;;;;;5010056;28;20236;-69
2022/03/17 15:01:57;;;;;;;0.00;0.00;;;;;;;;;;5002976;28;20205;-67
2022/03/17 15:04:24;;;;;;;0.00;0.00;;;;;;;;;;5004463;28;20224;-67
2022/03/17 15:06:52;;;;;;;0.00;0.00;;;;;;;;;;5002899;28;20206;-68
2022/03/17 15:09:19;;;;;;;0.00;0.00;;;;;;;;;;5014749;28;20199;-68
2022/03/17 15:11:47;;;;;;;0.00;0.00;;;;;;;;;;5012063;28;20220;-68
2022/03/17 15:14:14;;;;;;;0.00;0.00;;;;;;;;;;5013432;28;20207;-68
2022/03/17 15:16:43;;;;;;;0.20;0.10;;;;;;;;;;5012910;28;20263;-68
2022/03/17 15:19:11;;;;;;;0.00;0.00;;;;;;;;;;5014374;28;20228;-68
2022/03/17 15:21:38;;;;;;;0.00;0.00;;;;;;;;;;5008995;28;20288;-68
2022/03/17 15:24:06;;;;;;;0.00;0.00;;;;;;;;;;5006011;28;20202;-69
2022/03/17 15:26:33;;;;;;;0.00;0.00;;;;;;;;;;5006551;28;20295;-68
2022/03/17 15:31:47;;;;;;;0.00;0.00;;;;;;;;;;5011828;28;20250;-68
2022/03/17 15:34:16;;;;;;;0.00;0.00;;;;;;;;;;5002496;28;20284;-66
2022/03/17 15:36:44;;;;;;;0.00;0.00;;;;;;;;;;5011689;28;20646;-70
2022/03/17 15:39:11;;;;;;;0.00;0.00;;;;;;;;;;5007575;28;20236;-70
2022/03/17 15:41:39;;;;;;;0.55;0.45;;;;;;;;;;5003266;28;20197;-69
2022/03/17 15:44:07;;;;;;;0.03;0.03;;;;;;;;;;5009144;28;20201;-68
2022/03/17 15:46:34;;;;;;;0.10;0.03;;;;;;;;;;5007630;28;20209;-69
2022/03/17 15:49:03;;;;;;;4.13;1.10;;;;;;;;;;5007432;28;20291;-68
2022/03/17 15:51:30;;;;;;;0.00;0.00;;;;;;;;;;5012032;28;20201;-69
2022/03/17 15:53:58;;;;;;;0.00;0.00;;;;;;;;;;5018902;28;20201;-67
2022/03/17 15:56:25;;;;;;;0.10;0.10;;;;;;;;;;5014761;28;20211;-68
2022/03/17 15:58:53;;;;;;;0.00;0.00;;;;;;;;;;5009757;28;20614;-75
2022/03/17 16:01:21;;;;;;;0.00;0.00;;;;;;;;;;5010121;28;20284;-70
2022/03/17 16:03:49;;;;;;;0.00;0.00;;;;;;;;;;5011544;28;20619;-70
2022/03/17 16:06:18;;;;;;;0.00;0.00;;;;;;;;;;5010857;28;20197;-71
2022/03/17 16:08:45;;;;;;;0.00;0.00;;;;;;;;;;5011429;28;20205;-71
2022/03/17 16:16:42;;;;;;;0.00;0.00;;;;;;;;;;5016490;28;20227;-70
2022/03/17 16:19:09;;;;;;;0.00;0.00;;;;;;;;;;5016815;28;20327;-71
2022/03/17 16:21:38;;;;;;;0.00;0.00;;;;;;;;;;5018767;28;20666;-70
2022/03/17 16:24:06;;;;;;;0.00;0.00;;;;;;;;;;5017306;28;20216;-71
2022/03/17 16:26:33;;;;;;;0.00;0.00;;;;;;;;;;5018501;28;20197;-69
2022/03/17 16:29:01;;;;;;;0.00;0.00;;;;;;;;;;5013211;28;20203;-71
2022/03/17 16:31:28;;;;;;;0.00;0.00;;;;;;;;;;5010082;28;20232;-69
2022/03/17 16:33:56;;;;;;;0.00;0.00;;;;;;;;;;5012906;28;20212;-69
2022/03/17 16:36:23;;;;;;;0.00;0.00;;;;;;;;;;5013525;28;20662;-68
2022/03/17 16:38:55;;;;;;;0.00;0.00;;;;;;;;;;5017775;28;20197;-71
2022/03/17 16:41:22;;;;;;;0.00;0.00;;;;;;;;;;5017728;28;20213;-69
2022/03/17 16:43:50;;;;;;;0.00;0.00;;;;;;;;;;5017503;28;20207;-68
2022/03/17 16:46:18;;;;;;;0.00;0.00;;;;;;;;;;5011186;28;20580;-71
2022/03/17 16:48:46;;;;;;;0.77;0.67;;;;;;;;;;5017399;28;20262;-70
2022/03/17 16:51:13;;;;;;;0.00;0.00;;;;;;;;;;5017172;28;20234;-70
2022/03/17 16:53:41;;;;;;;0.13;0.13;;;;;;;;;;5017408;28;20288;-70
2022/03/17 16:56:10;;;;;;;18.20;3.60;;;;;;;;;;5016339;28;20201;-72
2022/03/17 16:58:38;;;;;;;0.00;0.00;;;;;;;;;;5017219;28;20244;-72
2022/03/17 17:01:05;;;;;;;0.40;0.40;;;;;;;;;;5017159;28;20228;-71
2022/03/17 17:03:35;;;;;;;0.50;0.50;;;;;;;;;;5014452;28;20621;-70
2022/03/17 17:06:02;;;;;;;0.00;0.00;;;;;;;;;;5013828;28;20208;-70
2022/03/17 17:08:30;;;;;;;0.00;0.00;;;;;;;;;;5012906;28;20578;-71
2022/03/17 17:10:58;;;;;;;0.20;0.20;;;;;;;;;;5009620;28;20205;-71
2022/03/17 17:13:27;;;;;;;0.00;0.00;;;;;;;;;;5007240;28;20259;-71
2022/03/17 17:15:55;;;;;;;0.00;0.00;;;;;;;;;;5013706;28;20749;-70
2022/03/17 17:18:22;;;;;;;0.73;0.43;;;;;;;;;;5013569;28;20213;-70
2022/03/17 17:20:50;;;;;;;0.00;0.00;;;;;;;;;;5013595;28;20235;-70
2022/03/17 17:31:34;;;;;;;0.10;0.10;;;;;;;;;;5012613;28;20212;-71
2022/03/17 17:34:02;;;;;;;0.33;0.33;;;;;;;;;;5013390;28;20213;-70
2022/03/17 17:36:29;;;;;;;0.00;0.00;;;;;;;;;;5003423;28;20220;-70
2022/03/17 17:38:57;;;;;;;0.00;0.00;;;;;;;;;;5008701;28;20728;-70
2022/03/17 17:41:25;;;;;;;0.17;0.17;;;;;;;;;;5009646;28;20779;-70
2022/03/17 17:43:54;;;;;;;0.00;0.00;;;;;;;;;;5009875;28;20209;-71
2022/03/17 17:46:22;;;;;;;0.10;0.10;;;;;;;;;;5013112;28;20601;-70
2022/03/17 17:48:49;;;;;;;0.00;0.00;;;;;;;;;;5016067;28;20209;-71
2022/03/17 17:51:16;;;;;;;0.70;0.70;;;;;;;;;;5013396;28;20251;-71
2022/03/17 17:53:44;;;;;;;0.00;0.00;;;;;;;;;;5012336;28;20204;-70
2022/03/17 17:56:11;;;;;;;0.20;0.20;;;;;;;;;;5012670;28;20200;-71
2022/03/17 17:58:40;;;;;;;0.00;0.00;;;;;;;;;;5012985;28;20570;-71
2022/03/17 18:01:09;;;;;;;0.00;0.00;;;;;;;;;;5023997;28;20232;-72
2022/03/17 18:03:37;;;;;;;0.00;0.00;;;;;;;;;;5033054;28;20236;-72
2022/03/17 18:06:04;;;;;;;0.00;0.00;;;;;;;;;;5001812;28;20206;-71
2022/03/17 18:08:32;;;;;;;0.00;0.00;;;;;;;;;;4993236;28;20743;-71
2022/03/17 18:10:59;;;;;;;0.00;0.00;;;;;;;;;;4999738;28;20200;-71
2022/03/17 18:13:27;;;;;;;0.00;0.00;;;;;;;;;;4993898;28;20198;-71
2022/03/17 18:15:55;;;;;;;0.00;0.00;;;;;;;;;;4992824;28;20655;-72
2022/03/17 18:18:24;;;;;;;0.00;0.00;;;;;;;;;;5000999;28;20209;-71
2022/03/17 18:20:53;;;;;;;0.00;0.00;;;;;;;;;;4996702;28;20781;-71
2022/03/17 18:23:21;;;;;;;0.00;0.00;;;;;;;;;;5002284;28;20255;-71
2022/03/17 18:25:49;;;;;;;0.93;0.93;;;;;;;;;;5013093;28;20223;-71
2022/03/17 18:28:16;;;;;;;0.00;0.00;;;;;;;;;;5011820;28;20233;-70
2022/03/17 18:30:44;;;;;;;0.00;0.00;;;;;;;;;;5012209;28;20205;-71
2022/03/17 18:33:11;;;;;;;0.00;0.00;;;;;;;;;;5013434;28;20208;-70